Home > Products > Valid Products > MTR

000
SAUS41 KBOX 232155
MTRMQE
METAR KMQE 232154Z AUTO 32021G35KT 09/01 A2947 RMK AO1 PK WND
32043/2122 SLP991 T00890011





000
SAUS41 KBOX 232055
MTRMQE
METAR KMQE 232054Z AUTO 33025G37KT 09/02 A2943 RMK AO1 PK WND
33041/2031 SLP976 60005 T00940022 53003





000
SAUS41 KBOX 231955
MTRMQE
METAR KMQE 231954Z AUTO 32012G24KT 09/06 A2942 RMK AO1 PK WND
32026/1941 SLP975 P0001 T00890056





000
SAUS41 KBOX 231856
MTRMQE
METAR KMQE 231854Z AUTO 32013G23KT 08/06 A2942 RMK AO1 PK WND
33028/1830 SLP975 P0004 T00780061





000
SAUS41 KBOX 231755
MTRMQE
METAR KMQE 231754Z AUTO 32013G25KT 08/07 A2942 RMK AO1 SLP974 P0010
60023 T00830072 10106 20083 53001





000
SAUS41 KBOX 231655
MTRMQE
METAR KMQE 231654Z AUTO 31013G19KT 09/08 A2942 RMK AO1 SLP973 P0006
T00890078





000
SAUS41 KBOX 231557
MTRMQE
METAR KMQE 231554Z AUTO 32011G18KT 09/08 A2941 RMK AO1 SLP971 P0003
T00890083





000
SAUS41 KBOX 231455
MTRMQE
METAR KMQE 231454Z AUTO 32015G22KT 09/08 A2942 RMK AO1 SLP972 60004
T00890083 50000





000
SAUS41 KBOX 231355
MTRMQE
METAR KMQE 231354Z AUTO 32012KT 09/08 A2943 RMK AO1 SLP976 P0001
T00890083





000
SAUS41 KBOX 231255
MTRMQE
METAR KMQE 231254Z AUTO 30007KT 09/09 A2945 RMK AO1 SLP982 P0003
T00940089





000
SAUS41 KBOX 231155
MTRMQE
METAR KMQE 231154Z AUTO 33011KT 11/09 A2941 RMK AO1 SLP970 70007
T01060094 10106 20094 58003





000
SAUS41 KBOX 231055
MTRMQE
METAR KMQE 231054Z AUTO 29011KT 10/09 A2944 RMK AO1 SLP980 T01000094





000
SAUS41 KBOX 230955
MTRMQE
METAR KMQE 230954Z AUTO 25008KT 10/09 A2943 RMK AO1 SLP974 T01000094





000
SAUS41 KBOX 230855
MTRMQE
METAR KMQE 230854Z AUTO 24006KT 10/09 A2942 RMK AO1 SLP972 T01000094
56009





000
SAUS41 KBOX 230755
MTRMQE
METAR KMQE 230754Z AUTO 25008KT 10/09 A2943 RMK AO1 SLP974 T01000094





000
SAUS41 KBOX 230655
MTRMQE
METAR KMQE 230654Z AUTO 24008KT 10/09 A2944 RMK AO1 SLP978 T01000094





000
SAUS41 KBOX 230555
MTRMQE
METAR KMQE 230554Z AUTO 21010KT 10/09 A2945 RMK AO1 SLP980 60007
T01000094 10139 20094 56013





000
SAUS41 KBOX 230455
MTRMQE
METAR KMQE 230454Z AUTO 21009KT 10/10 A2946 RMK AO1 SLP984 T01000100
402220067





000
SAUS41 KBOX 230355
MTRMQE
METAR KMQE 230354Z AUTO 19011KT 11/10 A2948 RMK AO1 SLP990 P0001
T01060100





000
SAUS41 KBOX 230255
MTRMQE
METAR KMQE 230254Z AUTO 20011KT 11/10 A2949 RMK AO1 SLP995 P0005
60006 T01060100 58002





000
SAUS41 KBOX 230155
MTRMQE
METAR KMQE 230154Z AUTO 20014KT 11/09 A2950 RMK AO1 SLP000 T01110094





000
SAUS41 KBOX 230055
MTRMQE
METAR KMQE 230054Z AUTO 18014KT 12/09 A2950 RMK AO1 SLP998 P0001
T01220089





000
SAUS41 KBOX 222355
MTRMQE
METAR KMQE 222354Z AUTO 19014G23KT 14/07 A2950 RMK AO1 SLP999
T01390072 10217 20139 55002





000
SAUS41 KBOX 222255
MTRMQE
METAR KMQE 222254Z AUTO 18017G25KT 15/06 A2949 RMK AO1 SLP997
T01500061





000
SAUS41 KBOX 222155
MTRMQE
METAR KMQE 222154Z AUTO 19018G24KT 17/06 A2949 RMK AO1 PK WND
19027/2113 SLP998 T01670056





000
SAUS41 KBOX 222055
MTRMQE
METAR KMQE 222054Z AUTO 18014G22KT 18/04 A2950 RMK AO1 PK WND
18030/2033 SLP001 T01830044 56018





000
SAUS41 KBOX 221955
MTRMQE
METAR KMQE 221954Z AUTO 19017G25KT 19/04 A2951 RMK AO1 PK WND
20028/1855 SLP004 T01940039





000
SAUS41 KBOX 221855
MTRMQE
METAR KMQE 221854Z AUTO 19021G27KT 21/04 A2953 RMK AO1 PK WND
18027/1811 SLP009 T02110039





000
SAUS41 KBOX 221755
MTRMQE
METAR KMQE 221754Z AUTO 18013G20KT 22/04 A2956 RMK AO1 SLP018
T02170039 10222 20089 57030





000
SAUS41 KBOX 221655
MTRMQE
METAR KMQE 221654Z AUTO 21012G19KT 22/03 A2958 RMK AO1 SLP027
T02170033





000
SAUS41 KBOX 221555
MTRMQE
METAR KMQE 221554Z AUTO 20012G17KT 19/04 A2962 RMK AO1 SLP041
T01940039





000
SAUS41 KBOX 221455
MTRMQE
METAR KMQE 221454Z AUTO 19011G16KT 18/04 A2965 RMK AO1 SLP050
T01780039 58019





000
SAUS41 KBOX 221355
MTRMQE
METAR KMQE 221354Z AUTO 20010KT 16/04 A2967 RMK AO1 SLP057 T01610044





000
SAUS41 KBOX 221255
MTRMQE
METAR KMQE 221254Z AUTO 19009KT 13/05 A2969 RMK AO1 SLP064 T01280050





000
SAUS41 KBOX 221155
MTRMQE
METAR KMQE 221154Z AUTO 20011KT 09/06 A2971 RMK AO1 SLP070 T00890056
10089 20067 58012





000
SAUS41 KBOX 221055
MTRMQE
METAR KMQE 221054Z AUTO 20013KT 07/04 A2972 RMK AO1 SLP077 T00670044





000
SAUS41 KBOX 220955
MTRMQE
METAR KMQE 220954Z AUTO 20012KT 07/04 A2973 RMK AO1 SLP077 T00670044





000
SAUS41 KBOX 220855
MTRMQE
METAR KMQE 220854Z AUTO 21013KT 07/04 A2974 RMK AO1 SLP081 T00720044
56018





000
SAUS41 KBOX 220755
MTRMQE
METAR KMQE 220754Z AUTO 20013KT 07/04 A2975 RMK AO1 SLP086 T00720039





000
SAUS41 KBOX 220655
MTRMQE
METAR KMQE 220654Z AUTO 21015KT 07/04 A2978 RMK AO1 SLP094 T00720039





000
SAUS41 KBOX 220555
MTRMQE
METAR KMQE 220554Z AUTO 21015KT 08/04 A2979 RMK AO1 SLP099 T00780039
10128 20078 58021





000
SAUS41 KBOX 220455
MTRMQE
METAR KMQE 220454Z AUTO 21015KT 08/03 A2982 RMK AO1 SLP107 T00830033
402000022





000
SAUS41 KBOX 220355
MTRMQE
METAR KMQE 220354Z AUTO 21015KT 08/03 A2984 RMK AO1 SLP116 T00830033





000
SAUS41 KBOX 220255
MTRMQE
METAR KMQE 220254Z AUTO 20015KT 09/03 A2986 RMK AO1 SLP121 T00890033
58008





000
SAUS41 KBOX 220155
MTRMQE
METAR KMQE 220154Z AUTO 19016KT 09/03 A2987 RMK AO1 SLP126 T00940033





000
SAUS41 KBOX 220055
MTRMQE
METAR KMQE 220054Z AUTO 18012KT 11/03 A2988 RMK AO1 SLP132 T01110028





000
SAUS41 KBOX 212355
MTRMQE
METAR KMQE 212354Z AUTO 19013KT 13/01 A2988 RMK AO1 SLP130 T01280011
10200 20128 56014





000
SAUS41 KBOX 212255
MTRMQE
METAR KMQE 212254Z AUTO 19014G20KT 15/M01 A2989 RMK AO1 SLP133
T01501011





000
SAUS41 KBOX 212155
MTRMQE
METAR KMQE 212154Z AUTO 18013G22KT 17/01 A2990 RMK AO1 SLP137
T01720011





000
SAUS41 KBOX 212055
MTRMQE
METAR KMQE 212054Z AUTO 19012G19KT 19/M01 A2992 RMK AO1 SLP144
T01891011 56032





000
SAUS41 KBOX 211955
MTRMQE
METAR KMQE 211954Z AUTO 21010G15KT 19/M02 A2995 RMK AO1 SLP153
T01941022





000
SAUS41 KBOX 211855
MTRMQE
METAR KMQE 211854Z AUTO 19008G19KT 160V220 18/M04 A2998 RMK AO1
SLP165 T01831039





000
SAUS41 KBOX 211755
MTRMQE
METAR KMQE 211754Z AUTO 17009KT 140V200 17/M04 A3002 RMK AO1 SLP176
T01721044 10178 20044 57038





000
SAUS41 KBOX 211655
MTRMQE
METAR KMQE 211654Z AUTO VRB06KT 16/M05 A3005 RMK AO1 PRESFR SLP189
T01561050





000
SAUS41 KBOX 211555
MTRMQE
METAR KMQE 211554Z AUTO 23008KT 15/M05 A3010 RMK AO1 SLP205
T01501050





000
SAUS41 KBOX 211455
MTRMQE
METAR KMQE 211454Z AUTO 20011KT 12/M04 A3013 RMK AO1 SLP217
T01221044 58018





000
SAUS41 KBOX 211355
MTRMQE
METAR KMQE 211354Z AUTO 21007KT 10/M03 A3015 RMK AO1 SLP224
T01001028





000
SAUS41 KBOX 211255
MTRMQE
METAR KMQE 211254Z AUTO 21008KT 07/M01 A3017 RMK AO1 SLP232
T00671011





000
SAUS41 KBOX 211155
MTRMQE
METAR KMQE 211154Z AUTO 18008KT 04/02 A3019 RMK AO1 SLP237 T00440017
10044 20022 58005





000
SAUS41 KBOX 211055
MTRMQE
METAR KMQE 211054Z AUTO 20009KT 03/01 A3020 RMK AO1 SLP240 T00280011





000
SAUS41 KBOX 210955
MTRMQE
METAR KMQE 210954Z AUTO 20009KT 02/01 A3020 RMK AO1 SLP239 T00220006





000
SAUS41 KBOX 210855
MTRMQE
METAR KMQE 210854Z AUTO 22010KT 02/M01 A3020 RMK AO1 SLP242
T00221006 56020





000
SAUS41 KBOX 210755
MTRMQE
METAR KMQE 210754Z AUTO 22010KT 03/M01 A3023 RMK AO1 SLP249
T00281006





000
SAUS41 KBOX 210655
MTRMQE
METAR KMQE 210654Z AUTO 21010KT 03/00 A3024 RMK AO1 SLP254 T00280000





000
SAUS41 KBOX 210555
MTRMQE
METAR KMQE 210554Z AUTO 22009KT 03/00 A3026 RMK AO1 SLP262 T00330000
10061 20033 58026





000
SAUS41 KBOX 210455
MTRMQE
METAR KMQE 210454Z AUTO 21010KT 03/01 A3029 RMK AO1 SLP273 T00330006
401110022





000
SAUS41 KBOX 210355
MTRMQE
METAR KMQE 210354Z AUTO 19010KT 03/01 A3032 RMK AO1 SLP280 T00330006





000
SAUS41 KBOX 210255
MTRMQE
METAR KMQE 210254Z AUTO 19010KT 04/00 A3034 RMK AO1 SLP288 T00390000
58010





000
SAUS41 KBOX 210155
MTRMQE
METAR KMQE 210154Z AUTO 17010KT 04/M01 A3036 RMK AO1 SLP295
T00441006





000
SAUS41 KBOX 210055
MTRMQE
METAR KMQE 210054Z AUTO 15011KT 05/M01 A3037 RMK AO1 SLP300
T00501011





000
SAUS41 KBOX 202355
MTRMQE
METAR KMQE 202354Z AUTO 13009KT 07/M04 A3037 RMK AO1 SLP299
T00671039 10111 20067 56011





    US Dept of Commerce
    National Oceanic and Atmospheric Administration
    National Weather Service
    1325 East West Highway
    Silver Spring, MD 20910
    Page Author: NWS Internet Services Team
Disclaimer
Information Quality
Credits
Glossary
Privacy Policy
Freedom of Information Act (FOIA)
About Us
Career Opportunities